Alma, CO

5:00 AM MDT on July 03, 2015 (GMT -0600)
Valley of the Sun | | Change Station
CLOSE
Current Station
Personal Weather Station
Location: Fairplay, CO
Elevation: 11000 ft
Nearby Weather Stations

Elev 11000 ft 39.24 °N, 106.11 °W | Updated 44 seconds ago

Partly Cloudy
Partly Cloudy
41.5 °F
Feels Like 42 °F
N
1.0
Wind Variable Wind from WSW
Gusts 1.0 mph

Today
High -- | Low -- °F
--% Chance of Precip.
Yesterday
High -- | Low -- °F
Precip. -- in
5:42 AM 8:34 PM
Full, 98% visible
Pressure 30.62 in
Visibility 10.0 miles
Clouds Scattered Clouds 5500 ft
Mostly Cloudy 7500 ft
Mostly Cloudy 9000 ft
Windchill 42 °F
Dew Point 39 °F
Humidity 91%
Rainfall 0.00 in
Snow Depth Not available.
UV 0 out of 12
Pollen 4.30 out of 12
Air Quality Not available.
Flu Activity Not available.
METAR KCCU 031055Z AUTO 23003KT 10SM SCT055 BKN075 BKN090 10/03 A3062 RMK AO2

More Conditions Fewer Conditions

Pressure 30.62 in
Visibility 10.0 miles
Clouds Scattered Clouds 5500 ft
Mostly Cloudy 7500 ft
Mostly Cloudy 9000 ft
Windchill 42 °F
Dew Point 39 °F
Humidity 91%
Rainfall 0.00 in
Snow Depth Not available.
UV 0 out of 12
Pollen 4.30 out of 12
Air Quality Not available.
Flu Activity Not available.
METAR KCCU 031055Z AUTO 23003KT 10SM SCT055 BKN075 BKN090 10/03 A3062 RMK AO2

More Conditions Fewer Conditions

10-Day Weather Forecast

×

Almanac

Astronomy

Jul. 03, 2015 Rise Set
Actual Time
Civil Twilight
Nautical Twilight
Astronomical Twilight
Moon
Length of Visible Light
Length of Day
Tomorrow will be .
, % of the Moon is Illuminated

Today's Extremes

State Highs State Lows

Community

WunderPhotos

Upload Photos

1,834,650 photos uploaded!

WunderBlogs® & News

Nearby

Air Quality

  Air Quality AQ Index Pollutant
Not available.

Snow Depth

Station Depth Elevation

Earthquake Activity

City Distance Mag. Time & Date
Minimum magnitude displayed is 2.5.

Coastal Water Temperatures

Place Temperature

Stations

Nearby Weather Stations

Station Location Temp. Windchill Dew Point Humidity Wind Precip. Elev Updated Type